• Join FlightAware (Why Join?)
  • Login
  • US Flag 
04:08AM EST


 

Airport Tracker/Info


-or-


 

Live Flight TrackerFlight Track Log ✈ DAL3698 ✈ 14-Apr-2013 ✈ KLAN - KMSP

Flight Track Log - Related Links

Times and Time Zones

All times are in EDT time to prevent confusion due to time zone crossing. See the DAL3698 flight status page for this flight to view local times or setup timezone preferences in your user account.

Time Position Orientation Groundspeed Altitude Reporting Facility
EDT Latitude Longitude Course Direction KTS MPH feet Rate Location/Type
07:35AM 42.7786 -84.7008 279° West 196 226 4,300  Level Minneapolis Center
07:36AM 42.7797 -84.7814 271° West 206 237 6,900 2,520 Climbing Minneapolis Center
07:37AM 42.7811 -84.8711 271° West 220 253 9,500 2,220 Climbing Minneapolis Center
07:38AM 42.7817 -84.9614 271° West 238 274 11,600 1,620 Climbing Chicago Center
07:39AM 42.7831 -85.0664 271° West 272 313 12,900 1,440 Climbing Chicago Center
07:40AM 42.7965 -85.5948 279° West  Level FlightAware Approximate
07:40AM 42.7847 -85.1786 271° West 292 336 14,600  Level Chicago Center
07:41AM 42.7847 -85.2906 270° West 296 341 16,500 1,560 Climbing Chicago Center
07:42AM 42.7858 -85.4036 271° West 298 343 17,800 1,260 Climbing Chicago Center
07:43AM 42.7900 -85.5219 273° West 308 354 19,100 1,080 Climbing Chicago Center
07:44AM 42.8061 -85.6411 280° West 319 367 20,100 780 Climbing Chicago Center
07:45AM 42.8222 -85.7661 280° West 329 379 20,800 900 Climbing Chicago Center
07:46AM 42.8419 -85.9200 280° West 339 390 22,000 1,020 Climbing Chicago Center
07:47AM 42.8544 -86.0222 280° West 337 388 22,900 1,020 Climbing Chicago Center
07:48AM 42.8739 -86.1767 280° West 339 390 24,100 1,080 Climbing Chicago Center
07:49AM 42.8897 -86.3047 280° West 340 391 25,100 960 Climbing Chicago Center
07:50AM 42.9056 -86.4325 280° West 341 392 26,100 960 Climbing Chicago Center
07:51AM 42.9206 -86.5611 279° West 343 395 27,100 900 Climbing Chicago Center
07:52AM 42.9367 -86.6872 280° West 338 389 28,000 420 Climbing Chicago Center
07:53AM 42.9519 -86.8189 279° West 351 404 28,000  Level Chicago Center
07:55AM 42.9683 -86.9564 279° West 366 421 28,000  Level Chicago Center
07:56AM 42.9856 -87.0994 279° West 380 437 28,000  Level Chicago Center
07:57AM 43.0019 -87.2414 279° West 377 434 28,000  Level Chicago Center
07:58AM 43.0181 -87.3869 279° West 375 432 28,000  Level Chicago Center
07:59AM 43.0333 -87.5236 279° West 367 422 28,000  Level Chicago Center
08:00AM 43.0481 -87.6597 278° West 363 418 28,000  Level Chicago Center
08:01AM 43.0639 -87.7994 279° West 371 427 28,000  Level Chicago Center
08:02AM 43.0789 -87.9392 278° West 371 427 28,000  Level Chicago Center
08:03AM 43.0950 -88.0797 279° West 373 429 28,000  Level Chicago Center
08:04AM 43.1103 -88.2181 279° West 368 423 28,000  Level Chicago Center
08:05AM 43.1628 -88.3617 297° West 374 430 28,000  Level Chicago Center
08:06AM 43.2269 -88.4717 309° West 368 423 28,000  Level Chicago Center
08:07AM 43.2922 -88.5831 309° West 369 425 28,000  Level Chicago Center
08:08AM 43.3575 -88.6953 309° West 369 425 28,000  Level Chicago Center
08:09AM 43.4225 -88.8086 308° West 373 429 28,000  Level Chicago Center
08:10AM 43.4872 -88.9203 309° West 372 428 28,000  Level Chicago Center
08:11AM 43.5519 -89.0333 308° West 372 428 28,000  Level Chicago Center
08:12AM 43.6167 -89.1456 309° West 373 429 28,000  Level Chicago Center
08:13AM 43.6597 -89.2211 308° West 374 430 28,000  Level Minneapolis Center
08:14AM 43.7247 -89.3342 309° West 375 432 28,000  Level Minneapolis Center
08:15AM 43.7875 -89.4467 308° West 370 426 28,000  Level Minneapolis Center
08:16AM 43.8522 -89.5608 308° West 374 430 28,000  Level Minneapolis Center
08:17AM 43.9161 -89.6742 308° West 373 429 28,000  Level Minneapolis Center
08:18AM 43.9792 -89.7900 307° West 374 430 28,000  Level Minneapolis Center
08:19AM 44.0436 -89.9031 308° West 374 430 28,000  Level Minneapolis Center
08:20AM 44.1067 -90.0175 308° West 373 429 28,000  Level Minneapolis Center
08:21AM 44.1742 -90.1583 304° West 373 429 28,000  Level Minneapolis Center
08:22AM 44.2267 -90.2819 301° West 372 428 28,000  Level Minneapolis Center
08:23AM 44.2792 -90.4067 300° West 373 429 28,000  Level Minneapolis Center
08:24AM 44.3328 -90.5314 301° West 375 432 28,000  Level Minneapolis Center
08:25AM 44.3858 -90.6558 301° West 373 429 28,000  Level Minneapolis Center
08:26AM 44.4386 -90.7828 300° West 376 433 28,000  Level Minneapolis Center
08:27AM 44.4903 -90.9097 300° West 376 433 28,000  Level Minneapolis Center
08:28AM 44.5433 -91.0356 301° West 377 434 28,000  Level Minneapolis Center
08:29AM 44.5956 -91.1642 300° West 379 436 28,000 -720 Level Minneapolis Center
08:30AM 44.6492 -91.2939 300° West 383 441 26,600 -1,740 Descending Minneapolis Center
08:31AM 44.7019 -91.4214 300° West 383 441 24,500 -2,040 Descending Minneapolis Center
08:32AM 44.7539 -91.5483 300° West 379 436 22,500 -2,040 Descending Minneapolis Center
08:33AM 44.8047 -91.6731 300° West 373 429 20,500 -2,040 Descending Minneapolis Center
08:34AM 44.8544 -91.7939 300° West 364 419 18,500 -2,280 Descending Minneapolis Center
08:34AM 44.9019 -91.8911 305° West 359 413 16,700 -2,520 Descending FAA TRACON SMA TRACON (SMA)
08:35AM 44.9172 -91.9289 300° West 359 413 16,100 -1,860 Descending FAA TRACON SMA TRACON (SMA)
08:35AM 44.9314 -91.9669 298° West 361 415 15,500 -2,040 Descending FAA TRACON SMA TRACON (SMA)
08:35AM 44.9472 -92.0133 296° West 351 404 14,700 -2,100 Descending FAA TRACON SMA TRACON (SMA)
08:36AM 44.9636 -92.0508 302° West 353 406 14,100 -1,860 Descending FAA TRACON SMA TRACON (SMA)
08:36AM 44.9778 -92.0869 299° West 347 399 13,500 -1,740 Descending FAA TRACON SMA TRACON (SMA)
08:36AM 44.9911 -92.1222 298° West 341 392 13,000 -1,860 Descending FAA TRACON SMA TRACON (SMA)
08:37AM 45.0083 -92.1656 299° West 331 381 12,300 -1,920 Descending FAA TRACON SMA TRACON (SMA)
08:37AM 45.0194 -92.1994 295° West 323 372 11,700 -1,620 Descending FAA TRACON SMA TRACON (SMA)
08:37AM 45.0322 -92.2331 298° West 319 367 11,200 -1,260 Descending FAA TRACON SMA TRACON (SMA)
08:38AM 45.0478 -92.2764 297° West 317 365 10,900 -480 Descending FAA TRACON SMA TRACON (SMA)
08:38AM 45.0492 -92.3136 273° West 314 361 10,900 120 Level FAA TRACON SMA TRACON (SMA)
08:38AM 45.0439 -92.3503 258° West 311 358 11,000 120 Climbing FAA TRACON SMA TRACON (SMA)
08:39AM 45.0356 -92.3964 256° West 315 362 11,000  Level FAA TRACON SMA TRACON (SMA)
08:39AM 45.0300 -92.4347 258° West 321 369 11,000  Level FAA TRACON SMA TRACON (SMA)
08:39AM 45.0222 -92.4831 257° West 325 374 11,000  Level FAA TRACON SMA TRACON (SMA)
08:40AM 45.0158 -92.5208 257° West 325 374 11,000  Level FAA TRACON SMA TRACON (SMA)
08:40AM 45.0081 -92.5689 257° West 325 374 11,000  Level FAA TRACON SMA TRACON (SMA)
08:40AM 45.0019 -92.6072 257° West 324 373 11,000  Level FAA TRACON SMA TRACON (SMA)
08:41AM 44.9958 -92.6456 257° West 324 373 11,000  Level FAA TRACON SMA TRACON (SMA)
08:41AM 44.9889 -92.6831 255° West 323 372 11,000  Level FAA TRACON SMA TRACON (SMA)
08:41AM 44.9828 -92.7211 257° West 322 371 11,000  Level FAA TRACON SMA TRACON (SMA)
08:42AM 44.9747 -92.7681 256° West 321 369 11,000 -180 Level FAA TRACON SMA TRACON (SMA)
08:42AM 44.9686 -92.8047 257° West 314 361 10,900 -600 Descending FAA TRACON SMA TRACON (SMA)
08:42AM 44.9636 -92.8394 259° West 300 345 10,600 -1,080 Descending FAA TRACON SMA TRACON (SMA)
08:43AM 44.9564 -92.8800 256° West 280 322 10,200 -1,200 Descending FAA TRACON SMA TRACON (SMA)
08:43AM 44.9511 -92.9117 257° West 270 311 9,800 -1,380 Descending FAA TRACON SMA TRACON (SMA)
08:43AM 44.9461 -92.9439 258° West 269 310 9,300 -1,500 Descending FAA TRACON SMA TRACON (SMA)
08:44AM 44.9394 -92.9839 257° West 272 313 8,800 -1,500 Descending FAA TRACON SMA TRACON (SMA)
08:44AM 44.9342 -93.0156 257° West 272 313 8,300 -1,200 Descending FAA TRACON SMA TRACON (SMA)
08:44AM 44.9294 -93.0467 258° West 265 305 8,000 -480 Descending FAA TRACON SMA TRACON (SMA)
08:45AM 44.9364 -93.0814 286° West 258 297 8,000  Level FAA TRACON SMA TRACON (SMA)
08:45AM 44.9492 -93.1039 309° West 243 280 8,000  Level FAA TRACON SMA TRACON (SMA)
08:45AM 44.9653 -93.1317 309° West 236 272 8,000  Level FAA TRACON SMA TRACON (SMA)
08:46AM 44.9778 -93.1547 307° West 240 276 8,000  Level FAA TRACON SMA TRACON (SMA)
08:46AM 44.9911 -93.1783 309° West 248 285 8,000  Level FAA TRACON SMA TRACON (SMA)
08:46AM 45.0072 -93.2081 307° West 249 287 8,000  Level FAA TRACON SMA TRACON (SMA)
08:47AM 45.0194 -93.2317 306° West 244 281 8,000 -300 Level FAA TRACON SMA TRACON (SMA)
08:47AM 45.0325 -93.2550 308° West 242 278 7,800 -900 Descending FAA TRACON SMA TRACON (SMA)
08:47AM 45.0483 -93.2842 308° West 243 280 7,400 -1,080 Descending FAA TRACON SMA TRACON (SMA)
08:48AM 45.0611 -93.3078 307° West 246 283 7,100 -900 Descending FAA TRACON SMA TRACON (SMA)
08:48AM 45.0714 -93.3336 299° West 246 283 6,800 -1,080 Descending FAA TRACON SMA TRACON (SMA)
08:48AM 45.0831 -93.3656 297° West 240 276 6,400 -1,080 Descending FAA TRACON SMA TRACON (SMA)
08:49AM 45.0919 -93.3903 297° West 233 268 6,100 -900 Descending FAA TRACON SMA TRACON (SMA)
08:49AM 45.1011 -93.4161 297° West 234 269 5,800 -1,080 Descending FAA TRACON SMA TRACON (SMA)
08:49AM 45.1111 -93.4497 293° West 240 276 5,400 -1,080 Descending FAA TRACON SMA TRACON (SMA)
08:50AM 45.1178 -93.4775 289° West 245 282 5,100 -1,080 Descending FAA TRACON SMA TRACON (SMA)
08:50AM 45.1131 -93.5047 256° West 250 288 4,700 -1,080 Descending FAA TRACON SMA TRACON (SMA)
08:50AM 45.0972 -93.5292 227° Southwest 231 266 4,400 -900 Descending FAA TRACON SMA TRACON (SMA)
08:51AM 45.0850 -93.5481 228° Southwest 216 249 4,100 -600 Descending FAA TRACON SMA TRACON (SMA)
08:51AM 45.0728 -93.5661 226° Southwest 208 239 4,000 -180 Descending FAA TRACON SMA TRACON (SMA)
08:51AM 45.0564 -93.5806 212° Southwest 200 230 4,000  Level FAA TRACON SMA TRACON (SMA)
08:52AM 45.0447 -93.5717 152° Southeast 188 216 4,000  Level FAA TRACON SMA TRACON (SMA)
08:52AM 45.0358 -93.5564 129° Southeast 166 191 4,000  Level FAA TRACON SMA TRACON (SMA)
08:52AM 45.0281 -93.5358 118° Southeast 156 180 4,000  Level FAA TRACON SMA TRACON (SMA)
08:53AM 45.0222 -93.5192 116° Southeast 153 176 4,000  Level FAA TRACON SMA TRACON (SMA)
08:53AM 45.0144 -93.4986 118° Southeast 153 176 4,000  Level FAA TRACON SMA TRACON (SMA)
08:53AM 45.0064 -93.4817 124° Southeast 165 190 4,000  Level FAA TRACON SMA TRACON (SMA)
08:54AM 44.9981 -93.4636 123° Southeast 174 200 4,000  Level FAA TRACON SMA TRACON (SMA)
08:54AM 44.9900 -93.4464 123° Southeast 173 199 4,000  Level FAA TRACON SMA TRACON (SMA)
08:54AM 44.9808 -93.4253 122° Southeast 166 191 4,000  Level FAA TRACON SMA TRACON (SMA)
08:55AM 44.9742 -93.4089 120° Southeast 160 184 4,000 -300 Level FAA TRACON SMA TRACON (SMA)
08:55AM 44.9669 -93.3917 121° Southeast 162 186 3,800 -780 Descending FAA TRACON SMA TRACON (SMA)
08:55AM 44.9578 -93.3714 123° Southeast 160 184 3,500 -900 Descending FAA TRACON SMA TRACON (SMA)
08:56AM 44.9514 -93.3558 120° Southeast 151 174 3,200 -900 Descending FAA TRACON SMA TRACON (SMA)
08:56AM 44.9453 -93.3411 120° Southeast 144 166 2,900 -900 Descending FAA TRACON SMA TRACON (SMA)
08:56AM 44.9375 -93.3239 123° Southeast 134 154 2,600 -660 Descending FAA TRACON SMA TRACON (SMA)
08:57AM 44.9325 -93.3125 122° Southeast 118 136 2,500 -480 Descending FAA TRACON SMA TRACON (SMA)
08:57AM 44.9275 -93.3011 122° Southeast 110 127 2,300 -600 Descending FAA TRACON SMA TRACON (SMA)
08:57AM 44.9228 -93.2897 120° Southeast 111 128 2,100 -780 Descending FAA TRACON SMA TRACON (SMA)
08:58AM 44.9161 -93.2747 122° Southeast 114 131 1,800 -780 Descending FAA TRACON SMA TRACON (SMA)
08:58AM 44.9108 -93.2622 121° Southeast 119 137 1,600 -600 Descending FAA TRACON SMA TRACON (SMA)
08:58AM 44.9056 -93.2497 121° Southeast 122 140 1,400 -780 Descending FAA TRACON SMA TRACON (SMA)
08:59AM 44.8983 -93.2328 121° Southeast 128 147 1,100 -600 Descending FAA TRACON SMA TRACON (SMA)
08:59AM 44.8953 -93.2256 121° Southeast 132 152 1,000 -300 Descending FAA TRACON SMA TRACON (SMA)
09:01AM 44.8820 -93.2218 134° Southeast  Level Estimated